International TAF

Brunei, China, Hong Kong, Malaysia, Philippines, Taiwan

The availability of aerodrome forecasts from overseas locations is dependent on the regular international exchange of data. Some locations may at times be absent. If this problem persists, please advise webav@bom.gov.au

 back to top

ZSPD 18/09/2020 UTC

TAF ZSPD 181509Z 1818/1918 01004MPS 5000 BR BKN016 TX24/1906Z
TN17/1821Z

WIDD 18/09/2020 UTC

TAF WIDD 181700Z 1818/1918 15005KT 9999 FEW014 PROB30 TEMPO 1822/1902 5000 -TSRA FEW013CB

WAMM 18/09/2020 UTC

TAF WAMM 181700Z 1818/1924 VRB03KT 9999 SCT021
BECMG 1900/1902 14008KT

WBSB 18/09/2020 UTC

TAF WBSB 181700Z 1818/2000 16003KT 9999 FEW015
BECMG 1902/1904 03008KT FEW017

WBKK 18/09/2020 UTC

TAF WBKK 181700Z 1818/1918 11005KT 9999 FEW015
BECMG 1900/1902 32005KT

WBGG 18/09/2020 UTC

TAF WBGG 181700Z 1818/1918 VRB03KT 9999 FEW020

VHHH 18/09/2020 UTC

TAF VHHH 181700Z 1818/1924 10015KT 9999 FEW015 SCT025 TX31/1906Z
TN27/1822Z TN27/1922Z TEMPO 1818/1824 14025G35KT 3000 -TSRA SHRA
FEW010CB SCT020 TEMPO 1900/1906 4000 SHRA FEW010CB SCT025

VMMC 18/09/2020 UTC

TAF VMMC 181702Z 1818/1924 12012KT 9999 FEW015 SCT025
TEMPO 1818/1902 13015G25KT 3500 TSRA FEW008CB SCT015
TEMPO 1902/1909 4000 SHRA FEW010CB SCT020
TEMPO 1918/1924 4000 SHRA FEW010CB SCT020

ZGSZ 18/09/2020 UTC

TAF ZGSZ 181514Z 1818/1918 12004MPS 6000 SCT020 TX31/1906Z
TN27/1822Z TEMPO 1818/1824 SHRA SCT015 FEW020CB BKN025 TEMPO
1900/1904
SHRA SCT015 FEW020CB TEMPO 1904/1910 VRB05G10MPS 2500 TSRA SCT010
FEW015CB BKN025

RCTP 18/09/2020 UTC

TAF RCTP 181700Z 1818/1924 01010KT 9999 FEW015 BKN032
TEMPO 1818/1824 06005KT FEW005 BKN014
TEMPO 1900/1906 27008KT
TEMPO 1906/1912 01017KT FEW005 BKN011 BKN020
TEMPO 1913/1919 04005KT FEW008 BKN014
TEMPO 1919/1924 4000 SHRA SCT005 BKN008 BKN020

RCKH 18/09/2020 UTC

TAF RCKH 181700Z 1818/1924 06005KT 9999 FEW015 BKN032
BECMG 1900/1902 26005KT
TEMPO 1903/1909 28010KT
TEMPO 1905/1911 4000 SHRA FEW008 FEW012CB BKN017
BECMG 1909/1911 05005KT

ZGGG 18/09/2020 UTC

TAF ZGGG 181509Z 1818/1918 06003MPS 8000 BKN030 TX30/1907Z
TN24/1822Z TEMPO 1818/1824 3500 +SHRA FEW008 FEW026CB BKN030 TEMPO
1904/1910
2000 TSRA SCT011 SCT030CB BKN033

ZBAA 18/09/2020 UTC

TAF ZBAA 181501Z 1818/1918 36004MPS CAVOK TX28/1907Z TN11/1821Z

ZSSS 18/09/2020 UTC

TAF ZSSS 181506Z 1818/1918 01004MPS 6000 BKN015 TX24/1906Z
TN17/1820Z

ZBTJ 18/09/2020 UTC

TAF ZBTJ 181501Z 1818/1918 23003MPS CAVOK TX28/1906Z TN16/1821Z

ZBYN 18/09/2020 UTC

TAF ZBYN 181505Z 1818/1918 09003MPS 5000 HZ NSC TX27/1907Z
TN08/1821Z

ZSHC 18/09/2020 UTC

TAF ZSHC 181502Z 1818/1918 36003MPS 3000 -RA BR SCT008 BKN020
TX19/1906Z TN15/1821Z TEMPO 1821/1903 2000 SHRA SCT008 BKN020
FEW030CB

ZSOF 18/09/2020 UTC

TAF ZSOF 181501Z 1818/1918 15003MPS 3000 BR NSC TX26/1907Z
TN16/1822Z

ZWWW 18/09/2020 UTC

TAF ZWWW 181505Z 1818/1918 16004MPS CAVOK TX19/1909Z TN11/1823Z
BECMG 1903/1904 36004MPS BECMG 1913/1914 18004MPS

ZYTL 18/09/2020 UTC

TAF ZYTL 181509Z 1818/1918 30004MPS 5000 BR FEW033 TX26/1906Z
TN17/1820Z BECMG 1914/1915 06004MPS

RPLL 18/09/2020 UTC

TAF RPLL 181700Z 1818/1924 12006KT 9999 FEW023 SCT100 TX32/1906Z
TN26/1821Z TEMPO 1818/1824 08005KT 9000 -SHRA SCT023 BKN090
TEMPO 1906/1912 14010KT 8000 -SHRA FEW022CB SCT023 BKN090

RPVM 18/09/2020 UTC

TAF RPVM 181700Z 1818/1924 04005KT 9999 FEW020 BKN300
TEMPO 1818/1824 02004KT FEW018CB FEW020 BKN300
TEMPO 1903/1909 06008KT FEW018CB BKN100

RPMZ 18/09/2020 UTC

TAF RPMZ 181700Z 1818/1918 26006KT 9999 FEW017 SCT090
TEMPO 1818/1824 08006KT 9000 -TSRA FEW016CB SCT017 OVC090

Australian International

The availability of aerodrome forecasts from overseas locations is dependent on the regular international exchange of data. Some locations may at times be absent. If this problem persists, please advise webav@bom.gov.au

 back to top

YMML 18/09/2020 UTC

TAF AMD YMML 181658Z 1818/2000
03008KT CAVOK
BECMG 1820/1822 02018G32KT CAVOK
BECMG 1823/1900 01027G40KT CAVOK
FM190300 01018G32KT CAVOK
FM190700 04010KT CAVOK
BECMG 1913/1915 01018G32KT 9999 -RA SCT025 BKN040
RMK FM182000 MOD TURB BLW 5000FT TL191200
FM191200 SEV TURB BLW 5000FT TL191900
FM191900 MOD TURB BLW 5000FT
T 13 15 20 23 Q 1020 1021 1020 1017

YSSY 18/09/2020 UTC

TAF AMD YSSY 181847Z 1818/2000
30005KT 9999 -SHRA FEW007 BKN030
FM190000 05015KT 9999 -SHRA FEW015 SCT030
FM191200 02012KT CAVOK
TEMPO 1818/1900 4000 -DZ SCT003 BKN005
INTER 1900/1903 6000 -SHRA BKN010
RMK
T 16 17 20 22 Q 1027 1027 1027 1024

YBBN 18/09/2020 UTC

TAF YBBN 181701Z 1818/2000
18007KT 9999 SCT030
FM190000 07013KT 9999 SCT040
FM191200 21006KT 9999 -SHRA SCT030
INTER 1918/2000 3000 SHRA FEW010 BKN020
RMK
T 17 18 23 23 Q 1024 1025 1025 1023

YSCB 18/09/2020 UTC

TAF YSCB 181640Z 1818/1918
10006KT 9999 BKN012
BECMG 1901/1902 05008KT 9999 BKN025
FM190300 05012KT 9999 -SHRA BKN025
BECMG 1911/1912 06010KT 9999 NSW BKN018
FM191600 04007KT 9999 -RA BKN015
RMK
T 11 12 16 20 Q 1027 1028 1028 1024

YBCS 18/09/2020 UTC

TAF YBCS 181705Z 1818/1918
16008KT 9999 SCT025 SCT040
FM182300 13014KT 9999 FEW020 BKN035
FM190900 13008KT 9999 SCT030
RMK
T 22 22 26 27 Q 1016 1017 1018 1015

YBAS 18/09/2020 UTC

TAF YBAS 181704Z 1818/1918
26010KT CAVOK
FM190200 29018G28KT CAVOK
FM190900 27008KT CAVOK
FM191600 31005KT CAVOK
RMK
T 14 12 22 30 Q 1013 1014 1015 1012

YBMA 18/09/2020 UTC

TAF YBMA 181705Z 1818/1906
03010KT 9999 -SHRA SCT045
FM190100 34014G24KT 9999 -SHRA SCT015
PROB30 TEMPO 1818/1906 VRB30G45KT 3000 TSRA SCT030 BKN040CB
RMK
T 23 21 28 32 Q 1013 1015 1016 1013

YPAD 18/09/2020 UTC

TAF AMD YPAD 181713Z 1818/2000
05010KT CAVOK
FM182200 05018KT 9999 -SHRA NSC
FM190300 02011KT 9999 -SHRA FEW025 SCT040
FM190900 33008KT 9999 NSW SCT030 SCT050
FM191500 36005KT 9999 SCT015 BKN030
FM192300 35012KT CAVOK
INTER 1823/1903 6000 SHRA SCT050
INTER 1903/1907 4000 SHRA BKN020
PROB30 INTER 1904/1907 VRB15G25KT 3000 TSRA BKN015 SCT030CB
RMK FM181800 SEV TURB BLW 5000FT TL182000
FM182000 MOD TURB BLW 5000FT TL190300
T 19 18 20 20 Q 1010 1009 1008 1005

YPDN 18/09/2020 UTC

TAF YPDN 181707Z 1818/2000
08005KT 9999 -SHRA SCT018 BKN025
FM190400 36014KT 9999 NSW SCT040
FM190900 03008KT 9999 SCT020
FM191500 06005KT 9999 -SHRA SCT015 BKN025
INTER 1818/1822 3000 SHRA BKN012
PROB30 TEMPO 1818/1822 VRB20G35KT 2000 TSRA BKN010 SCT020CB
PROB30 TEMPO 1916/1922 VRB20G35KT 2000 TSRA BKN010 SCT020CB
RMK
T 25 25 29 31 Q 1011 1012 1014 1011

YPTN 18/09/2020 UTC

TAF AMD YPTN 181808Z 1818/1918
36005KT 9999 -SHRA BKN030
FM190000 02010KT 9999 -SHRA SCT045
FM190400 10005KT CAVOK
FM191500 36007KT 9999 -SHRA SCT030 SCT060
TEMPO 1818/1821 4000 SHRA SCT015
PROB30 TEMPO 1818/1823 VRB15G25KT 2000 TSRA BKN012 SCT035CB
RMK
T 29 26 31 35 Q 1011 1013 1014 1011

YPPH 18/09/2020 UTC

TAF YPPH 181717Z 1818/2000
35006KT 9999 SCT025 BKN035
FM182100 24014KT 9999 -SHRA SCT015 BKN020
FM190000 25016KT 9999 NSW FEW035 BKN050
FM190500 25018KT 9999 -SHRA SCT035 BKN045
FM191400 24014KT 9999 -SHRA FEW035 SCT045
INTER 1818/1823 4000 SHRA SCT010 BKN015
INTER 1905/1916 26020G34KT 5000 SHRA SCT020 BKN030
RMK
T 13 13 15 17 Q 1007 1007 1009 1010

YPLM 18/09/2020 UTC

TAF YPLM 181729Z 1818/1918
21005KT 9999 BKN018
FM190100 22010KT CAVOK
FM190400 24016KT CAVOK
FM191000 20016KT 9999 FEW018
RMK
T 17 17 21 27 Q 1013 1013 1015 1015

YCAR 18/09/2020 UTC

TAF YCAR 182039Z 1822/1911
20014KT 9999 SCT025
RMK
T 18 21 23 22 Q 1013 1016 1015 1014

YPCC 18/09/2020 UTC

TAF YPCC 181729Z 1818/1918
12014KT 9999 SCT025
RMK
T 26 25 26 27 Q 1012 1011 1013 1014

YPPD 18/09/2020 UTC

TAF AMD YPPD 181949Z 1819/1918
18004KT 9999 SCT014
FM190100 30014KT CAVOK
FM191200 28010KT CAVOK
TEMPO 1820/1900 9999 BKN013
RMK
T 20 17 28 32 Q 1011 1012 1014 1012

YBTL 18/09/2020 UTC

TAF YBTL 181654Z 1818/1918
11012KT 9999 SCT030
FM190100 07017KT 9999 FEW025 SCT040
FM190900 10008KT 9999 SCT020
RMK
T 21 21 26 27 Q 1017 1018 1019 1017

YMHB 18/09/2020 UTC

TAF YMHB 181710Z 1818/1918
33007KT CAVOK
FM190000 36014KT 9999 SCT035
FM190800 34007KT CAVOK
RMK
T 04 06 14 18 Q 1027 1027 1025 1021

YPXM 18/09/2020 UTC

TAF YPXM 181730Z 1818/1918
13012KT 9999 -SHRA BKN010
FM191000 13012KT 9999 -SHRA BKN006 BKN012
RMK
T 23 23 24 25 Q 1012 1012 1014 1014

New Zealand

The availability of aerodrome forecasts from overseas locations is dependent on the regular international exchange of data. Some locations may at times be absent. If this problem persists, please advise webav@bom.gov.au

 back to top

NZAA 18/09/2020 UTC

TAF NZAA 181704Z 1818/1918 24015KT 9999 FEW025 SCT035
PROB30 TEMPO 1821/1906 7000 SHRA
BECMG 1907/1909 17005KT

NZWN 18/09/2020 UTC

TAF AMD NZWN 181940Z 1819/1918 36008KT 9999 FEW025
BECMG 1820/1822 16010KT

NZCH 18/09/2020 UTC

TAF NZCH 181704Z 1818/1918 25008KT CAVOK
BECMG 1822/1900 18012KT
BECMG 1907/1909 06005KT

YLHI 18/09/2020 UTC

TAF YLHI 181709Z 1818/1918
11014KT 9999 -SHRA SCT010 BKN025
BECMG 1820/1822 10016KT 9999 NSW BKN025
FM190600 09012KT 9999 BKN030
TEMPO 1818/1821 5000 SHRA BKN012
RMK
T 16 17 18 19 Q 1028 1029 1029 1027

YSNF 18/09/2020 UTC

TAF AMD YSNF 182022Z 1820/1918
14014KT 9999 -SHRA BKN010
BECMG 1821/1823 14014KT 9999 -SHRA SCT010 BKN025
FM190400 14012KT 9999 NSW BKN025
TEMPO 1820/1900 4000 SHRA SCT004 BKN006
RMK
T 16 18 18 16 Q 1026 1026 1025 1025

Indonesia, Malaysia, Myanmar, Singapore, Thailand, Vietnam

The availability of aerodrome forecasts from overseas locations is dependent on the regular international exchange of data. Some locations may at times be absent. If this problem persists, please advise webav@bom.gov.au

 back to top

WADA

TAF not available.

WAAA 18/09/2020 UTC

TAF WAAA 181700Z 1818/2000 16006KT 8000 FEW020
BECMG 1822/1900 9999
BECMG 1902/1904 28012KT

WIII 18/09/2020 UTC

TAF WIII 181700Z 1818/2000 17004KT 4000 HZ FEW020
BECMG 1902/1904 05010KT 9000 NSW

WIHH 18/09/2020 UTC

TAF WIHH 181700Z 1818/1918 15005KT 5000 HZ FEW022 BECMG 1903/1905 07012KT 6000 SCT020

WIMM 18/09/2020 UTC

TAF WIMM 181700Z 1818/1918 VRB04KT 4000 BR SCT017
BECMG 1903/1905 03010KT 9999 NSW SCT018
TEMPO 1910/1914 VRB06KT 5000 -TSRA FEW016CB SCT017
BECMG 1915/1916 VRB04KT 4000 BR

WIPP 18/09/2020 UTC

TAF WIPP 181700Z 1818/1918 12005KT 9999 SCT010
TEMPO 1821/1824 4000 HZ

WIKD

TAF not available.

WARR 18/09/2020 UTC

TAF WARR 181700Z 1818/1918 09010KT 4000 HZ FEW020
BECMG 1818/1820 26005KT
BECMG 1900/1902 09013KT 9999 NSW
BECMG 1916/1918 24005KT 4000 HZ

WADD 18/09/2020 UTC

TAF WADD 181700Z 1818/1918 VRB05KT 9999 SCT017
BECMG 1900/1902 11010KT

WRRA

TAF not available.

WALL 18/09/2020 UTC

TAF WALL 181700Z 1818/1924 27005KT 9000 FEW018TCU SCT020 PROB30 TEMPO 1818/1821 5000 SHRA
TEMPO 1906/1909 3000 TSRA FEW015CB BKN015

WSSS 18/09/2020 UTC

TAF WSSS 181700Z 1818/2000 22010KT 9999 FEW015 SCT020

WSAP 18/09/2020 UTC

TAF WSAP 181700Z 1818/2000 22010KT 9999 FEW015 SCT020

WMKK 18/09/2020 UTC

TAF WMKK 181700Z 1818/2000 VRB02KT 9999 FEW017CB
TEMPO 1818/1922 26008G20KT 3000 TSRA FEW010
FEW016CB SCT026 BECMG 1903/1904 22006KT FEW018

WMSA 18/09/2020 UTC

TAF WMSA 181700Z 1818/1918 18006KT 9999 FEW017CB
TEMPO 1820/1900 4000 TSRA FEW010 FEW016CB SCT024
PROB30 TEMPO 1905/1910 5000 SHRA FEW016CB SCT018

WMKP 18/09/2020 UTC

TAF WMKP 181700Z 1818/1918 VRB03KT 8000 FEW025
TEMPO 1822/1902 6000 -TSRA FEW010 FEW017CB
BECMG 1904/1906 22006KT 9000 FEW020
PROB30 TEMPO 1908/1912 7000 -TSRA FEW010 FEW017CB

WMKJ 18/09/2020 UTC

TAF AMD WMKJ 181744Z 1818/1918 18006KT 9999 FEW022
TEMPO 1819/1823 4000 TSRA FEW010 FEW017CB SCT025
TEMPO 1906/1910 3000 TSRA FEW017CB SCT018

WMKD 18/09/2020 UTC

TAF WMKD 181700Z 1818/1918 00000KT 8000 FEW010
BECMG 1900/1901 VRB03KT 9999 FEW020

WMKB 18/09/2020 UTC

TAF WMKB 181700Z 1818/1918 VRB03KT 8000 FEW024
PROB30 TEMPO 1820/1900 07005KT 6000 -TSRA FEW008 FEW017CB
BECMG 1903/1905 30010KT FEW020

VTBD 18/09/2020 UTC

TAF VTBD 181700Z 1818/1924 24008KT 9000 FEW020 BKN100
TEMPO 1818/1824 22010KT 4000 TSRA FEW018CB SCT030 BKN100
BECMG 1900/1902 18010KT
TEMPO 1908/1914 22012KT 4000 TSRA FEW018CB SCT030 BKN100

VTBS 18/09/2020 UTC

TAF VTBS 181700Z 1818/1924 24008KT 9000 FEW020 BKN100
TEMPO 1818/1824 22010KT 5000 TSRA FEW018CB SCT030 BKN100
BECMG 1900/1902 18010KT
TEMPO 1906/1912 22012KT 4000 TSRA FEW018CB SCT030 BKN100

VTBU 18/09/2020 UTC

TAF VTBU 181700Z 1818/1918 24010KT 9999 FEW020 SCT100
TEMPO 1820/1901 VRB12G25KT 4000 TSRA FEW018CB SCT035 BKN100
TEMPO 1908/1913 VRB12G25KT 5000 TSRA FEW018CB SCT035 BKN100

VTCC 18/09/2020 UTC

TAF VTCC 181700Z 1818/1924 36005KT 9999 SCT035
TEMPO 1906/1915 03015G30KT 4000 TSRA FEW018CB BKN030

VTSP 18/09/2020 UTC

TAF VTSP 181700Z 1818/1924 28014KT 9999 SCT020 BKN100
TEMPO 1904/1910 28020G35KT 5000 RA FEW018 SCT020 BKN100
TEMPO 1918/1924 28020G35KT 5000 RA FEW018 SCT020 BKN100

VTSS 18/09/2020 UTC

TAF VTSS 181700Z 1818/1918 24003KT 9999 FEW020 BKN100
TEMPO 1818/1824 24010G20KT 5000 RA SCT015 OVC100
TEMPO 1906/1912 24010G20KT 5000 RA SCT015 OVC100

VVTS 18/09/2020 UTC

TAF VVTS 181700Z 1818/1924 22008KT 9999 SCT015 BKN040
TEMPO 1818/1820 5000 RA BKN012 BKN040
TEMPO 1905/1910 21015G30KT 3000 TSRA BKN012 SCT015CB

VDPP 18/09/2020 UTC

TAF VDPP 181700Z 1818/1912 25010KT 9999 SCT015 SCT040
TEMPO 1906/1911 5000 TSRA SCT015 FEW017CB BKN040

VVNB 18/09/2020 UTC

TAF VVNB 181700Z 1818/1918 03010KT 9000 SCT030 BKN050
TEMPO 1903/1909 4000 RA SCT015 FEW023TCU BKN040

VYYY 18/09/2020 UTC

TAF VYYY 181700Z 1818/1918 23008KT 7000 BKN016 FEW020CB BKN110
BECMG 1820/1823 14008KT 4000 -RA
BECMG 1902/1905 23010KT 3000 RA/-TSRA BKN010 FEW016CB OVC090

South America

The availability of aerodrome forecasts from overseas locations is dependent on the regular international exchange of data. Some locations may at times be absent. If this problem persists, please advise webav@bom.gov.au

 back to top

SAEZ 18/09/2020 UTC

TAF SAEZ 181700Z 1818/1918 21005KT CAVOK TX23/1819Z TN07/1910Z
BECMG 1906/1908 13005KT
BECMG 1910/1912 20015KT

SAVC 18/09/2020 UTC

TAF SAVC 181700Z 1818/1918 23020G30KT 9999 BKN045 TX12/1818Z
TN04/1811Z TEMPO 1818/1822 23020G35KT SHRASN BECMG 1823/1901 25015KT
CAVOK

SCIE 18/09/2020 UTC

TAF SCIE 181610Z 1818/1918 20012KT CAVOK TX16/1819Z TN09/1910Z TEMPO
1819/1823 22015G25KT BECMG 1902/1904 18008KT BECMG
1914/1916 21013KT

SACO 18/09/2020 UTC

TAF SACO 181700Z 1818/1918 18015KT CAVOK TX20/1918Z TN08/1910Z
TEMPO 1821/1900 20010KT
BECMG 1909/1912 20015KT

SCIP 18/09/2020 UTC

TAF SCIP 181602Z 1818/1918 18010KT 9999 SCT020 BKN040
TX19/1819Z TN14/1908Z
TEMPO 1819/1900 15015KT 7000 -SHRA SCT010 BKN020
BECMG 1904/1906 12010KT
TEMPO 1908/1912 15015KT 7000 -SHRA SCT010 BKN020

SAZM 18/09/2020 UTC

TAF SAZM 181700Z 1818/1918 25015G25KT 9999 SCT030
TX17/1818Z TN02/1910Z BECMG 1900/1903 25010KT 7000 SCT020 BECMG
1912/1914 23020G30KT 6000 SHRA SCT030 BKN040

SAME 18/09/2020 UTC

TAF SAME 181700Z 1818/1918 14010KT CAVOK TX23/1820Z TN10/1906Z
BECMG 1820/1822 16005KT
BECMG 1901/1903 16010KT

SUMU 18/09/2020 UTC

TAF SUMU 181730Z 1818/1918 28005KT CAVOK TX15/1918Z TN07/1910Z

SAZN 18/09/2020 UTC

TAF SAZN 181700Z 1818/1918 23015G25KT 9999 SCT030
TX19/1919Z TN03/1911Z TEMPO 1820/1823 23020G30KT
BECMG 1900/1903 24015KT BECMG 1903/1906 27010KT CAVOK
BECMG 1915/1918 32010KT

SCTE 18/09/2020 UTC

TAF SCTE 181645Z 1818/1918 20010KT 9999 BKN040 TX11/1818Z
TN02/1911Z
TEMPO 1818/1822 8000 SHRA BKN020
BECMG 1900/1902 FEW020
BECMG 1906/1908 BKN030

SCCI 18/09/2020 UTC

TAF SCCI 181651Z 1818/1918 23025G35KT 9999 SCT035 TN02/1900Z
TX06/1818Z PROB40
TEMPO 1818/1822 23030G43KT
TEMPO 1900/1904 27020G35KT PROB30
TEMPO 1902/1904 9000 -SHRASN RA SCT010 BKN025
BECMG 1908/1910 8000 -SHRA SCT010 BKN022
BECMG 1914/1916 22020G30KT 9999 NSW FEW030

SAWG 18/09/2020 UTC

TAF SAWG 181700Z 1818/1918 23030G45KT 9999 FEW025 BKN030
TX08/1819Z
TN03/1903Z
TEMPO 1818/1821 23030G52KT 8000 -SHRASN BKN020
BECMG 1900/1902 25020G37KT CAVOK
BECMG 1912/1914 23025G40KT 9999 SCT035 BKN050
TEMPO 1915/1918 23030G50KT

SAAR 18/09/2020 UTC

TAF SAAR 181700Z 1818/1918 16015KT CAVOK TX26/1818Z TN08/1910Z
BECMG 1820/1823 16010KT
BECMG 1906/1909 19005KT
BECMG 1912/1915 19015KT

SAZS 18/09/2020 UTC

TAF SAZS 181700Z 1818/1918 27025G35KT 9999 FEW030
TX14/1919Z TNM01/1909Z BECMG 1820/1822 25015G25KT
BECMG 1900/1903 25010KT CAVOK BECMG 1903/1906 VRB03KT
BECMG 1914/1917 30005KT

SCEL 18/09/2020 UTC

TAF SCEL 181610Z 1818/1918 18010KT CAVOK TX27/1819Z TN07/1911Z TEMPO
1820/1900 21015KT BECMG 1901/1903 16004KT TEMPO 1906/1912
7000 NSC BECMG 1914/1916 16007KT

SAWH 18/09/2020 UTC

TAF SAWH 181700Z 1818/1918 23025KT 1200 SN BKN008 OVC020
TX02/1819Z
TNM00/1911Z
BECMG 1822/1900 25020KT 5000 SHSN BKN008 OVC015
BECMG 1900/1902 25020KT 0800 +SN
BECMG 1912/1914 23020G45KT 2000 SN

Guam, Japan, Korea

The availability of aerodrome forecasts from overseas locations is dependent on the regular international exchange of data. Some locations may at times be absent. If this problem persists, please advise webav@bom.gov.au

 back to top

PGUA 18/09/2020 UTC

TAF AMD PGUA 182103Z 1821/1924 04009KT 4800 -TSRA SCT008CB BKN025
BKN120 QNH2983INS
TEMPO 1821/1822 05015G25KT 2400 -SHRA BKN015
TEMPO 1822/1902 12015G20KT 6000 -SHRA VCTS BKN015CB
BECMG 1901/1902 10006KT 9999 NSW SCT030 QNH2980INS
BECMG 1914/1915 VRB06KT 9999 BKN030 QNH2977INS
TEMPO 1917/1918 16012KT 6000 -SHRA BKN015 TX30/1902Z
TN25/1821Z

PGUM 18/09/2020 UTC

TAF PGUM 182046Z 1821/1924 03012G22KT 6SM -RA VCTS SCT014CB BKN040
OVC100
TEMPO 1821/1824 2SM +SHRA BKN012 OVC020
FM190000 05010KT P6SM VCSH SCT016 SCT040 BKN120

PGSN 18/09/2020 UTC

TAF PGSN 181732Z 1818/1918 04008KT P6SM VCSH SCT016 SCT040 BKN100
TEMPO 1818/1822 3SM +SHRA BKN014 OVC030

PTRO 18/09/2020 UTC

TAF PTRO 181732Z 1818/1918 VRB04KT P6SM FEW018 SCT050
FM190200 VRB06KT P6SM VCSH SCT018 SCT050

RJOO

18/09/2020 UTC

TAF RJOO 181708Z 1818/2000 32007KT 9999 FEW020 SCT030

RJOB 18/09/2020 UTC

TAF RJOB 181708Z 1818/2000 34004KT 9999 FEW020 BECMG 1822/1900
30005KT BECMG 1909/1912 02004KT

RJGG 18/09/2020 UTC

TAF RJGG 181706Z 1818/2000 31014KT 9999 FEW030 SCT040

RJCC 18/09/2020 UTC

TAF RJCC 181705Z 1818/2000 15003KT 9999 FEW008 SCT015 TEMPO
1818/1821 3000 BR BECMG 1823/1901 24010KT BECMG 1909/1912
15006KT

RJSS 18/09/2020 UTC

TAF RJSS 181705Z 1818/2000 30010KT 9999 FEW020 SCT040 BECMG
1904/1906 13005KT BECMG 1909/1912 24004KT

RJFK 18/09/2020 UTC

TAF RJFK 181705Z 1818/2000 34007KT 9999 FEW015 TEMPO 1903/1909 4000
-SHRA BR

RJAA 18/09/2020 UTC

TAF RJAA 181705Z 1818/2000 04008KT 9999 FEW008 BKN015 TEMPO
1822/1903 FEW005 BKN008

RJBB 18/09/2020 UTC

TAF RJBB 181706Z 1818/2000 03007KT 9999 FEW020 SCT045 BECMG
1900/1902 27005KT BECMG 1909/1912 07012KT

RJTT 18/09/2020 UTC

TAF RJTT 181705Z 1818/2000 03006KT 9999 FEW008 BKN015 TEMPO
1820/1901 FEW005 BKN008 BECMG 1902/1904 08008KT BECMG
1912/1915 36012KT TEMPO 1912/1918 FEW005 BKN008

RJFF 18/09/2020 UTC

TAF RJFF 181705Z 1818/2000 15004KT 9999 FEW015 SCT030 BECMG
1823/1901 33013KT BECMG 1909/1912 14004KT BECMG 1921/2000
34011KT

RJFT 18/09/2020 UTC

TAF RJFT 181705Z 1818/2000 24003KT 8000 FEW005 TEMPO 1818/1821 4000
BR BECMG 1912/1915 06005KT

RJFU 18/09/2020 UTC

TAF RJFU 181707Z 1818/2000 34007KT 9999 FEW020

ROAH 18/09/2020 UTC

TAF ROAH 181712Z 1818/2000 19008KT 9999 FEW015 SCT025 BECMG
1906/1909 04005KT

RKSS 18/09/2020 UTC

TAF AMD RKSS 181846Z 1819/1924 30007KT 9999 SCT040 BKN080
TN16/1820Z TX25/1905Z TN14/1920Z
TEMPO 1819/1822 6000 -RA
BECMG 1900/1901 CAVOK

RKSI 18/09/2020 UTC

TAF AMD RKSI 181910Z 1819/1924 26008KT 9999 BKN030 BKN080
TN19/1821Z TX24/1905Z TN17/1921Z
TEMPO 1819/1820 33015KT -TSRA SCT015CB BKN025 OVC080
BECMG 1901/1902 29015G25KT CAVOK
BECMG 1910/1911 32010KT

RKSM 18/09/2020 UTC

TAF RKSM 181700Z 1818/1924 24006KT 9999 SCT030 BECMG 1900/1901
24006KT 9999 BKN030 BECMG 1905/1906 24006KT 9999 SCT030
TX27/1906Z TN14/1921Z

RKPK 18/09/2020 UTC

TAF RKPK 181700Z 1818/1924 33006KT 4800 BR SCT030
TX28/1906Z TN18/1921Z
BECMG 1823/1900 9999 NSW
BECMG 1902/1903 21008KT
BECMG 1915/1916 33006KT

RKPC 18/09/2020 UTC

TAF RKPC 181700Z 1818/1924 19006KT CAVOK
TN18/1821Z TX24/1905Z TN18/1921Z
BECMG 1901/1902 32006KT
BECMG 1910/1911 20006KT
BECMG 1921/1922 02007KT

Indonesia, Pakistan, Singapore, India, Sri Lanka, United Arab Emirates

The availability of aerodrome forecasts from overseas locations is dependent on the regular international exchange of data. Some locations may at times be absent. If this problem persists, please advise webav@bom.gov.au

 back to top

WIII 18/09/2020 UTC

TAF WIII 181700Z 1818/2000 17004KT 4000 HZ FEW020
BECMG 1902/1904 05010KT 9000 NSW

WSSS 18/09/2020 UTC

TAF WSSS 181700Z 1818/2000 22010KT 9999 FEW015 SCT020

VCBI 18/09/2020 UTC

TAF VCBI 181700Z 1818/1924 25010KT 9999 SCT016 TX30/1908Z
TN26/1900Z PROB40
TEMPO 1822/1904 25010G20KT 7000 -SHRA FEW012 BKN016
FEW020CB

VECC 18/09/2020 UTC

TAF VECC 181700Z 1818/1924 00000KT 3500 HZ FEW018 SCT100
BECMG 1823/1901 2800 HZ SCT018 SCT100
BECMG 1903/1905 04005KT 4000 HZ
PROB40 TEMPO 1908/1912 2000 TSRA SCT015 FEW025CB BKN090
BECMG 1922/1924 00000KT 2800 -RA HZ SCT018 BKN100

VOMM 18/09/2020 UTC

TAF VOMM 181700Z 1818/1924 23005KT 4000 -DZ/BR SCT020 BKN100
TEMPO 1818/1824 SCT020 FEW025TCU/CB BKN100
BECMG 1903/1904 23010KT 6000
TEMPO 1909/1915 4000 -TSRA/RA SCT018 FEW025TCU/CB OVC080
BECMG 1915/1916 4000 -DZ/BR
TEMPO 1918/1924 SCT020 FEW025TCU/CB BKN100

VOTV 18/09/2020 UTC

TAF VOTV 181700Z 1818/1924 29005KT 2500 /RA BR FEW010 SCT012
FEW025CB OVC080
TEMPO 1822/1902 VRB03KT 2000 /RA BR
BECMG 1903/1905 33010KT 3000 /RA BR SCT012 FEW025CB BKN080
BECMG 1906/1908 6000 FEW010 SCT012 FEW025CB BKN080
TEMPO 1912/1916 33005KT 2500 /RA BR
TEMPO 1920/1924 VRB03KT 2000 /RA BR

VABB 18/09/2020 UTC

TAF VABB 181700Z 1818/1924 13005KT 2500 -RA HZ FEW012 SCT018
FEW030TCU/CB OVC080
TEMPO 1818/1903 1200 TSRA SHRA
BECMG 1822/1824 2000 -RA HZ
BECMG 1902/1904 17005KT 3000 -DZ HZ
BECMG 1906/1908 25008KT 4000 HZ FEW018 SCT025 BKN090
TEMPO 1906/1915 1500 TSRA SHRA FEW018 FEW030TCU/CB BKN090
BECMG 1915/1917 34005KT 3000 -DZ HZ FEW012 SCT018 BKN090
TEMPO 1918/1924 1500 -TSRA-SHRA FEW012 FEW030TCU/CB BKN090
BECMG 1920/1924 VRB03KT 2500 -DZ HZ

VAAH 18/09/2020 UTC

TAF VAAH 181700Z 1818/1924 20004KT 4000 HZ SCT020 BKN080
BECMG 1901/1903 33004KT 2500 BR HZ
BECMG 1904/1906 4000 HZ FEW020 SCT025
BECMG 1907/1909 5000 FU FEW020 SCT025 FEW030TCU
TEMPO 1908/1913 2000 -TSRA -SHRA FEW012 SCT020 FEW030CB
BKN080
TEMPO 1910/1912 29004KT
BECMG 1913/1915 VRB02KT 4000 DZ HZ SCT020 FEW030TCU BKN080
BECMG 1919/1921 00000KT 4000 HZ SCT020 SCT080

VILK 18/09/2020 UTC

TAF VILK 181700Z 1818/1924 11004KT 2500 BR FEW020 SCT025 BKN200
BECMG 1823/1901 1500 BR
TEMPO 1818/1822 FEW030CB
BECMG 1903/1905 3000 BR
BECMG 1908/1912 FEW030CB
BECMG 1912/1914 3000 BR
BECMG 1921/1923 2000 BR

VANP 18/09/2020 UTC

TAF VANP 181700Z 1818/1924 00000KT 2500 -RA BR SCT018 BKN090
BECMG 1900/1902 36002KT 2000 -RA BR SCT018 BKN090
BECMG 1904/1906 02005KT 4000 HZ -RA SCT018 SCT025 FEW030TCU
TEMPO 1910/1914 32015G25KT 1500 TSRA FEW010 SCT015 FEW030CB
BKN080 BECMG 1916/1918 02004KT 2500 SCT018 BKN090

VRMM 18/09/2020 UTC

TAF VRMM 181700Z 1818/1924 28014KT 9999 SCT017TCU BKN100 TEMPO
1818/1824 28018G38KT 3000 TSRA FEW010 SCT016CB

VOHS 18/09/2020 UTC

TAF VOHS 181700Z 1818/1924 26006KT 3500 DZ BR SCT010 SCT015
TEMPO 1823/1903 25008KT 1500 .DZ BR BKN008 FEW030CB BECMG
1903/1905 23008KT 5000 HZ SCT015 SCT025 OVC080 TEMPO 1906/1912
26008KT 3000 .TSRA SCT010 FEW030CB OVC100 BECMG 1917/1918
27007KT 5000 BR SCT015 BKN100

OPKC 18/09/2020 UTC

TAF OPKC 181830Z 1821/1906 24010KT 6000 SCT020 TEMPO 1900/1904
26007KT 4000 FU SCT020

OBBI 18/09/2020 UTC

TAF OBBI 181700Z 1818/2000 VRB05KT CAVOK TEMPO 1908/1916 35010KT

OMAA 18/09/2020 UTC

TAF OMAA 181700Z 1818/2000 03006KT 8000 NSC
BECMG 1900/1902 10006KT 4000 HZ
PROB30 TEMPO 1901/1904 0500 FG VV001
BECMG 1904/1906 VRB02KT 8000 NSW
BECMG 1909/1911 33012KT
BECMG 1918/1920 06005KT

OMDB 18/09/2020 UTC

TAF OMDB 181700Z 1818/2000 34010KT 8000 NSC
BECMG 1818/1820 12005KT
PROB30 1901/1904 4000 HZ
BECMG 1907/1909 33013KT
BECMG 1915/1917 10005KT

OOMS 18/09/2020 UTC

TAF OOMS 181700Z 1818/1924 25006KT 8000 NSC BECMG 1906/1908 34012KT
BECMG 1915/1917 VRB02KT

OMSJ 18/09/2020 UTC

TAF OMSJ 181700Z 1818/2000 VRB02KT 8000 NSC
PROB30 1900/1904 4000 HZ
BECMG 1907/1909 33014KT
BECMG 1915/1917 11005KT

Malawi, Mauritius, South Africa, Zambia, Zimbabwe

The availability of aerodrome forecasts from overseas locations is dependent on the regular international exchange of data. Some locations may at times be absent. If this problem persists, please advise webav@bom.gov.au

 back to top

FIMP 18/09/2020 UTC

TAF COR FIMP 181720Z 1818/2000 10012G22KT 9999 SCT017 PROB30 TEMPO
1821/1902 7000 -SHRA SCT015 BKN050 TEMPO 1915/2000 7000 -SHRA BKN015

FMEE 18/09/2020 UTC

TAF FMEE 181700Z 1818/1924 13010KT 9999 BKN060 TEMPO 1904/1912
10015G25KT

FLKK 18/09/2020 UTC

TAF FLKK 181000Z 1812/1918 09010G15KT 8000 HZ FEW040
FM181600 10010KT CAVOK
BECMG 1903/1905 10010G15KT 8000 HZ SKC
BECMG 1909/1911 09010KT

FWKI 18/09/2020 UTC

TAF FWKI 181430Z 1818/1924 07010KT CAVOK BECMG 1907/1909 05010KT 9999
FEW025 FM191400 08010KT CAVOK

FAOR 18/09/2020 UTC

TAF FAOR 181600Z 1818/1924 28010KT CAVOK
TX27/1913Z TN14/1904Z
BECMG 1824/1902 36010KT
BECMG 1908/1910 27010KT
BECMG 1915/1917 36015KT
PROB30 TEMPO 1915/1918 FEW045TCU

FVHA

TAF not available.

FAWK 18/09/2020 UTC

TAF FAWK 181800Z 1819/1906 NIL

FABL 18/09/2020 UTC

TAF FABL 181600Z 1818/1918 VRB03KT CAVOK TX30/1912Z TN03/1904Z
BECMG 1906/1908 35010KT

FALE 18/09/2020 UTC

TAF FALE 181600Z 1818/1924 VRB03KT 9999 SCT020
TX22/1912Z TN17/1904Z
BECMG 1822/1900 19015KT
BECMG 1914/1916 13010KT
BECMG 1918/1920 VRB03KT

YPCC 18/09/2020 UTC

TAF YPCC 181729Z 1818/1918
12014KT 9999 SCT025
RMK
T 26 25 26 27 Q 1012 1011 1013 1014

United States (includes Hawaii) and Mexican emergency/alternates

The availability of aerodrome forecasts from overseas locations is dependent on the regular international exchange of data. Some locations may at times be absent. If this problem persists, please advise webav@bom.gov.au

 back to top

PHNL 18/09/2020 UTC

TAF PHNL 181726Z 1818/1924 07011KT P6SM FEW025 FEW045
FM181900 06015G23KT P6SM FEW025 SCT045
FM190500 06011KT P6SM FEW025 FEW045

PHLI 18/09/2020 UTC

TAF PHLI 181726Z 1818/1918 07012KT P6SM VCSH SCT025 SCT040
FM182000 07014KT P6SM FEW025 SCT045

PHOG 18/09/2020 UTC

TAF PHOG 181726Z 1818/1918 15006KT P6SM SKC
FM182000 05015G25KT P6SM FEW045
FM190500 05012KT P6SM FEW045
AMD LTD TO VIS AND WIND 1909/1916

PHTO 18/09/2020 UTC

TAF PHTO 181726Z 1818/1918 24005KT P6SM VCSH SCT025 BKN035 BKN250
FM182000 08011KT P6SM FEW030 SCT045
FM190500 24005KT P6SM VCSH SCT025 BKN040

PKMJ 18/09/2020 UTC

TAF PKMJ 181732Z 1818/1918 04009KT P6SM VCSH FEW018 SCT050 SCT180

KLAX 18/09/2020 UTC

TAF KLAX 182113Z 1821/1924 26011KT P6SM SCT250
FM190400 25006KT P6SM SCT150
FM190800 VRB03KT P6SM SCT150
FM191200 VRB05KT 1SM BR OVC002
FM191800 VRB05KT 3SM BR BKN005
FM192200 26013KT P6SM SCT150

KONT 18/09/2020 UTC

TAF KONT 181730Z 1818/1924 VRB04KT P6SM BKN150
FM182000 26012G18KT P6SM SCT150
FM190400 VRB04KT P6SM SCT120
FM192000 26012G18KT P6SM SCT150

KPMD 18/09/2020 UTC

TAF KPMD 182057Z 1821/1918 23012G25KT 6SM HZ SCT150
FM190200 25010KT P6SM SCT150
FM190600 26006KT P6SM SCT150
FM191000 VRB05KT P6SM BKN150

KSAN 18/09/2020 UTC

TAF KSAN 182052Z 1821/1924 30010KT P6SM SCT150
FM190300 VRB04KT P6SM SCT150
FM191900 30010KT P6SM SCT150

KLAS 18/09/2020 UTC

TAF KLAS 182045Z 1821/1924 20015G24KT P6SM SCT130 OVC250
FM190200 21011G20KT P6SM SCT130 SCT250
FM190600 21011KT P6SM FEW130
FM191800 21014G24KT P6SM FEW130

KOAK 18/09/2020 UTC

TAF KOAK 181733Z 1818/1924 28008KT P6SM FEW012 SCT120
FM182100 27015KT P6SM FEW015 SCT200
FM190400 27010KT P6SM SCT017
FM190600 28008KT P6SM BKN014
FM191000 28006KT P6SM OVC008
FM191530 28004KT P6SM OVC012
FM191800 30010KT P6SM FEW015

KSFO 18/09/2020 UTC

TAF KSFO 182055Z 1821/1924 29015G21KT P6SM FEW035
FM190300 28011KT P6SM FEW010 SCT020
FM190500 27009KT P6SM BKN015
FM190800 27007KT P6SM OVC010
FM191500 29005KT P6SM BKN015
FM191700 29010KT P6SM FEW012 FEW025

KSMF 18/09/2020 UTC

TAF KSMF 181732Z 1818/1918 15008KT P6SM BKN250
FM182000 18007KT P6SM SCT250
FM190600 15012KT P6SM SKC

KSCK 18/09/2020 UTC

TAF KSCK 181732Z 1818/1918 29010KT P6SM OVC250
FM182000 30008KT P6SM SCT250
FM190300 27012KT P6SM SKC

KFAT 18/09/2020 UTC

TAF KFAT 181720Z 1818/1918 31011KT P6SM BKN130
FM190300 31011KT P6SM SCT130

KJFK 18/09/2020 UTC

TAF KJFK 181951Z 1820/1924 36016G23KT P6SM FEW040
FM190600 36014G20KT P6SM SKC
FM191800 01011KT P6SM SKC

KPHL 18/09/2020 UTC

TAF KPHL 182037Z 1821/1924 35012G20KT P6SM SCT035 BKN200
FM190100 01012KT P6SM SCT200
FM192200 03006KT P6SM SKC

KPIT 18/09/2020 UTC

TAF KPIT 182056Z 1821/1924 01010G20KT P6SM BKN060
FM190000 02007KT P6SM SKC

KDEN 18/09/2020 UTC

TAF KDEN 182108Z 1821/1924 07010G20KT 6SM FU FEW120 SCT220
FM190200 15010KT P6SM SCT140 SCT200
FM190500 21010KT P6SM FEW140 BKN220
FM191300 24008KT P6SM SCT140 BKN220
FM191600 VRB05KT P6SM SCT150
FM192000 30010KT P6SM SCT150 BKN220

KMCI 18/09/2020 UTC

TAF KMCI 181728Z 1818/1918 08006KT P6SM FEW250
FM191400 14010KT P6SM SCT250

KDFW 18/09/2020 UTC

TAF KDFW 182046Z 1821/1924 03011KT P6SM SCT050
FM190000 06007KT P6SM FEW250

KAUS 18/09/2020 UTC

TAF KAUS 181720Z 1818/1924 03013KT P6SM SCT040 SCT150
FM190200 01005KT P6SM FEW150
FM191700 03012KT P6SM FEW250

KELP 18/09/2020 UTC

TAF KELP 181720Z 1818/1918 11011KT P6SM SCT090
FM190300 12006KT P6SM SKC
FM191200 03004KT P6SM SKC

KIAH 18/09/2020 UTC

TAF KIAH 182045Z 1821/1924 02014KT P6SM SCT090 BKN250
FM190000 05010KT P6SM SCT250
FM191000 02008KT P6SM SKC
FM191700 04010G20KT P6SM FEW090 FEW250

KSAT 18/09/2020 UTC

TAF KSAT 181720Z 1818/1924 02012KT P6SM SCT040 SCT250
FM190200 03006KT P6SM FEW250
FM191500 03011KT P6SM FEW250

KTUS 18/09/2020 UTC

TAF KTUS 181724Z 1818/1918 12014G22KT P6SM SKC

MMCU 18/09/2020 UTC

TAF MMCU 181733Z 1818/1918 04015KT P6SM BKN040
BECMG 1900/1901 00000KT
FM191500 12010KT P6SM SCT030

MMHO 18/09/2020 UTC

TAF MMHO 181716Z 1818/1918 10015KT P6SM SKC
BECMG 1901/1902 00000KT
FM191500 10010KT P6SM SKC

MMLT 18/09/2020 UTC

TAF MMLT 181709Z 1818/1918 16005KT P6SM SKC
BECMG 1820/1821 16015KT SCT040 SCT240
FM190200 21008KT P6SM SCT240
BECMG 1905/1906 00000KT
FM191200 04005KT P6SM SKC

MMSD 18/09/2020 UTC

TAF MMSD 181709Z 1818/1918 13008KT P6SM SCT030 SCT250
BECMG 1821/1822 13015KT SCT030CB BKN250
TEMPO 1823/1903 5SM TSRA BKN030CB
FM190400 19005KT P6SM SCT030 BKN100
BECMG 1907/1908 00000KT
FM191200 03005KT P6SM SCT030 BKN100

Papua New Guinea, Southwest Pacific

The availability of aerodrome forecasts from overseas locations is dependent on the regular international exchange of data. Some locations may at times be absent. If this problem persists, please advise webav@bom.gov.au

 back to top

NWWW 18/09/2020 UTC

TAF NWWW 181700Z 1818/1918 VRB02KT 9999 SCT040 BKN055 PROB40 TEMPO
1818/1820 3000 MIFG BECMG 1822/1824 12012KT BECMG 1906/1908 VRB02KT

NFFN 18/09/2020 UTC

TAF NFFN 181703Z 1818/1918
13010KT 9999 FEW030
BECMG 1822/1824 30012KT
BECMG 1904/1906 13008KT

NFNA 18/09/2020 UTC

TAF NFNA 181712Z 1818/1918
15007KT 9999 FEW020 SCT050
PROB30 TEMPO 1900/1918 5000 SHRA BKN015

NFTF 18/09/2020 UTC

TAF AMD NFTF 181922Z 1819/1918
12010KT 9999 -SHRA SCT008 BKN015 OVC040
TEMPO 1819/1824 1500 +SHRA BKN012
PROB40 TEMPO 1900/1912 5000 TSRA BKN015 FEW017CB

NSTU 18/09/2020 UTC

TAF NSTU 181726Z 1818/1918 05008KT P6SM VCSH SCT020 SCT040 SCT250

NVVV 18/09/2020 UTC

TAF NVVV 181600Z 1818/1918 12012KT 9999 SCT025

NCRG 18/09/2020 UTC

TAF NCRG 181705Z 1818/1918
11010KT 9999 SCT020 BKN035
PROB30 TEMPO 1818/1824 12015G25KT 5000 SHRA BKN015
PROB40 TEMPO 1906/1918 5000 SHRA BKN015

NTAA 18/09/2020 UTC

TAF NTAA 181700Z 1818/1924 VRB05KT 9999 FEW023 TEMPO 1821/1903
05015KT PROB30 TEMPO 1908/1911 05015KT 5000 SHRA SCT020 BKN050

NTTG

TAF not available.

NTTO

TAF not available.

NSFA 18/09/2020 UTC

TAF NSFA 181711Z 1818/1918
11005KT 9999 FEW020
PROB40 TEMPO 1912/1918 5000 TSRA BKN015 FEW018CB

ANYN 18/09/2020 UTC

TAF ANYN 181831Z 1818/1918 10010KT 9999 FEW020 SCT040
T 26 29 30 31
Q 1009 1011 1010 1008

AGGH 18/09/2020 UTC

TAF AGGH 181710Z 1818/1918 09015KT 9999 -SHRA SCT018 BKN100

PROB40 INTER 1818/1903 5000 TSSH BKN015 SCT016CB

T 24 26 29 30 Q 1009 1011 1011 1009

AGGM 18/09/2020 UTC

TAF AGGM 181710Z 1818/1918 05010KT 9999 -SHRA SCT017 BKN100

INTER 1818/1903 5000 TSSH BKN015 SCT016CB

Q 1009 1011 1011 1009

AGGN 18/09/2020 UTC

TAF AGGN 181710Z 1818/1918 05012KT 9999 -SHRA SCT017 BKN100

INTER 1818/1903 5000 TSSH BKN015 SCT016CB

Q 1009 1011 1011 1009

AYPY 18/09/2020 UTC

TAF AYPY 181830Z 1818/1918 14010KT 9999 SCT016 SCT140

AYNZ

TAF not available.

AYMD

TAF not available.

AYMH

TAF not available.

AYTA

TAF not available.

PKMJ 18/09/2020 UTC

TAF PKMJ 181732Z 1818/1918 04009KT P6SM VCSH FEW018 SCT050 SCT180

NGTA 18/09/2020 UTC

TAF NGTA 181712Z 1818/1918
11008KT 9999 FEW020

PTRO 18/09/2020 UTC

TAF PTRO 181732Z 1818/1918 VRB04KT P6SM FEW018 SCT050
FM190200 VRB06KT P6SM VCSH SCT018 SCT050

YLHI 18/09/2020 UTC

TAF YLHI 181709Z 1818/1918
11014KT 9999 -SHRA SCT010 BKN025
BECMG 1820/1822 10016KT 9999 NSW BKN025
FM190600 09012KT 9999 BKN030
TEMPO 1818/1821 5000 SHRA BKN012
RMK
T 16 17 18 19 Q 1028 1029 1029 1027

YSNF 18/09/2020 UTC

TAF AMD YSNF 182022Z 1820/1918
14014KT 9999 -SHRA BKN010
BECMG 1821/1823 14014KT 9999 -SHRA SCT010 BKN025
FM190400 14012KT 9999 NSW BKN025
TEMPO 1820/1900 4000 SHRA SCT004 BKN006
RMK
T 16 18 18 16 Q 1026 1026 1025 1025

Indonesia, Timor Leste, Papua New Guinea

The availability of aerodrome forecasts from overseas locations is dependent on the regular international exchange of data. Some locations may at times be absent. If this problem persists, please advise webav@bom.gov.au

 back to top

WAAA 18/09/2020 UTC

TAF WAAA 181700Z 1818/2000 16006KT 8000 FEW020
BECMG 1822/1900 9999
BECMG 1902/1904 28012KT

WAMM 18/09/2020 UTC

TAF WAMM 181700Z 1818/1924 VRB03KT 9999 SCT021
BECMG 1900/1902 14008KT

WAMP

TAF not available.

WAJJ 18/09/2020 UTC

TAF WAJJ 181700Z 1818/1918 00000KT 9999 FEW013
BECMG 1821/1823 14005KT
TEMPO 1907/1911 VCSH FEW012CB FEW013

WAPP 18/09/2020 UTC

TAF WAPP 181700Z 1818/1918 34006KT 9999 SCT019
BECMG 1822/1900 15009KT

WABB 18/09/2020 UTC

TAF WABB 181700Z 1818/2000 03005KT 9999 SCT018
TEMPO 1822/1901 -RA FEW017CB

WPDL 18/09/2020 UTC

TAF WPDL 181622Z 1818/1906
15005KT 9999 SCT020
FM190000 35008KT 9999 SCT045
FM190300 05012KT 9999 -SHRA SCT040
INTER 1903/1906 3000 SHRA SCT015 BKN040
PROB30 TEMPO 1904/1906 VRB15G25KT 2000 TSRA SCT010 SCT040CB
RMK
T 26 26 28 30 Q 1010 1010 1012 1011

WATT 18/09/2020 UTC

TAF WATT 181700Z 1818/1918 12007KT 8000 FEW020
TEMPO 1903/1907 31012KT

WIII 18/09/2020 UTC

TAF WIII 181700Z 1818/2000 17004KT 4000 HZ FEW020
BECMG 1902/1904 05010KT 9000 NSW

WIHH 18/09/2020 UTC

TAF WIHH 181700Z 1818/1918 15005KT 5000 HZ FEW022 BECMG 1903/1905 07012KT 6000 SCT020

WIMM 18/09/2020 UTC

TAF WIMM 181700Z 1818/1918 VRB04KT 4000 BR SCT017
BECMG 1903/1905 03010KT 9999 NSW SCT018
TEMPO 1910/1914 VRB06KT 5000 -TSRA FEW016CB SCT017
BECMG 1915/1916 VRB04KT 4000 BR

WARR 18/09/2020 UTC

TAF WARR 181700Z 1818/1918 09010KT 4000 HZ FEW020
BECMG 1818/1820 26005KT
BECMG 1900/1902 09013KT 9999 NSW
BECMG 1916/1918 24005KT 4000 HZ

WADD 18/09/2020 UTC

TAF WADD 181700Z 1818/1918 VRB05KT 9999 SCT017
BECMG 1900/1902 11010KT

AYPY 18/09/2020 UTC

TAF AYPY 181830Z 1818/1918 14010KT 9999 SCT016 SCT140

AYNZ

TAF not available.

AYMH

TAF not available.

AYMD

TAF not available.

AYHK

TAF not available.

AYTK

TAF not available.

AYVN

TAF not available.

AYWK

TAF not available.

AYGA

TAF not available.

AYDU

TAF not available.

AYMS

TAF not available.

AYRB

TAF not available.

AYTB

TAF not available.

AYKI

TAF not available.

AYKT

TAF not available.

AYBK

TAF not available.

AYKM

TAF not available.

AYKY

TAF not available.

AYMO

TAF not available.

AYKV

TAF not available.

Accessing this Service

By entering this site, you acknowledge that this information is produced solely for use by the aviation industry, and you are aware that any information for the purposes of flight planning should be obtained from Airservices Australia.